createdAt,value
2022-10-26T00:00:01.938Z,65.50
2022-10-26T00:01:59.031Z,65.60
2022-10-26T00:03:32.291Z,65.70
2022-10-26T00:05:06.569Z,66.10
2022-10-26T00:06:39.743Z,66.20
2022-10-26T00:08:12.395Z,66.30
2022-10-26T00:09:45.525Z,66.50
2022-10-26T00:11:20.527Z,66.50
2022-10-26T00:12:53.942Z,66.50
2022-10-26T00:14:28.463Z,66.80
2022-10-26T00:16:02.037Z,66.20
2022-10-26T00:17:35.699Z,66.20
2022-10-26T00:19:08.873Z,66.20
2022-10-26T00:20:42.383Z,66.10
2022-10-26T00:22:15.665Z,66.10
2022-10-26T00:23:49.028Z,66.30
2022-10-26T00:25:21.337Z,66.30
2022-10-26T00:26:54.519Z,66.20
2022-10-26T00:28:27.000Z,66.30
2022-10-26T00:30:00.283Z,66.40
2022-10-26T00:31:33.752Z,66.50
2022-10-26T00:33:12.606Z,66.60
2022-10-26T00:34:45.847Z,66.70
2022-10-26T00:36:19.405Z,66.70
2022-10-26T00:37:55.288Z,66.70
2022-10-26T00:39:28.624Z,66.90
2022-10-26T00:41:02.029Z,66.90
2022-10-26T00:42:35.323Z,66.90
2022-10-26T00:44:59.120Z,66.90
2022-10-26T00:46:36.797Z,67.30
2022-10-26T00:48:25.549Z,67.00
2022-10-26T00:50:16.219Z,67.10
2022-10-26T00:51:52.628Z,67.10
2022-10-26T00:53:26.314Z,67.40
2022-10-26T00:54:59.485Z,67.90
2022-10-26T00:56:35.395Z,67.10
2022-10-26T00:58:12.811Z,67.20
2022-10-26T00:59:47.371Z,67.30
2022-10-26T01:01:21.234Z,67.30
2022-10-26T01:02:58.948Z,67.30
2022-10-26T01:04:35.185Z,67.50
2022-10-26T01:06:11.137Z,67.60
2022-10-26T01:07:47.032Z,67.60
2022-10-26T01:09:21.992Z,67.60
2022-10-26T01:10:57.680Z,67.60
2022-10-26T01:12:31.183Z,67.60
2022-10-26T01:14:09.650Z,67.60
2022-10-26T01:15:57.706Z,67.70
2022-10-26T01:17:49.795Z,67.80
2022-10-26T01:20:06.966Z,67.80
2022-10-26T01:21:52.150Z,67.90
2022-10-26T01:23:40.001Z,67.70
2022-10-26T01:25:32.733Z,67.70
2022-10-26T01:27:29.321Z,67.70
2022-10-26T01:29:56.550Z,67.90
2022-10-26T01:31:41.686Z,67.90
2022-10-26T01:33:30.675Z,67.90
2022-10-26T01:35:10.280Z,67.90
2022-10-26T01:36:51.023Z,67.90
2022-10-26T01:38:33.540Z,68.00
2022-10-26T01:40:20.506Z,68.10
2022-10-26T01:42:01.242Z,68.20
2022-10-26T01:43:38.808Z,68.20
2022-10-26T01:45:15.841Z,68.70
2022-10-26T01:46:54.127Z,68.40
2022-10-26T01:48:30.872Z,68.50
2022-10-26T01:50:07.080Z,68.50
2022-10-26T01:51:45.198Z,68.60
2022-10-26T01:53:21.150Z,68.60
2022-10-26T01:55:02.697Z,68.60
2022-10-26T01:56:40.251Z,68.70
2022-10-26T01:58:36.942Z,68.60
2022-10-26T02:00:12.974Z,68.80
2022-10-26T02:02:26.704Z,68.80
2022-10-26T02:04:14.830Z,69.20
2022-10-26T02:06:13.495Z,69.00
2022-10-26T02:07:59.714Z,69.20
2022-10-26T02:09:47.150Z,69.10
2022-10-26T02:11:39.043Z,69.20
2022-10-26T02:13:21.565Z,69.30
2022-10-26T02:15:05.771Z,69.30
2022-10-26T02:16:49.633Z,69.40
2022-10-26T02:18:34.827Z,69.30
2022-10-26T02:20:16.871Z,69.60
2022-10-26T02:21:54.736Z,69.50
2022-10-26T02:23:31.277Z,69.50
2022-10-26T02:25:10.183Z,69.50
2022-10-26T02:26:49.098Z,69.60
2022-10-26T02:28:30.591Z,69.70
2022-10-26T02:30:07.102Z,70.00
2022-10-26T02:31:44.308Z,69.90
2022-10-26T02:33:20.458Z,70.00
2022-10-26T02:35:00.233Z,70.00
2022-10-26T02:36:39.903Z,70.00
2022-10-26T02:38:15.139Z,70.00
2022-10-26T02:39:53.499Z,70.10
2022-10-26T02:41:30.769Z,70.00
2022-10-26T02:43:08.547Z,70.10
2022-10-26T02:44:49.337Z,70.10
2022-10-26T02:46:24.932Z,70.10
2022-10-26T02:47:58.994Z,70.40
2022-10-26T02:49:31.543Z,70.20
2022-10-26T02:51:14.220Z,70.20
2022-10-26T02:52:59.073Z,70.20
2022-10-26T02:54:43.012Z,70.20
2022-10-26T02:56:25.375Z,70.20
2022-10-26T02:58:05.216Z,70.20
2022-10-26T02:59:43.878Z,70.30
2022-10-26T03:01:17.526Z,70.30
2022-10-26T03:02:57.876Z,70.30
2022-10-26T03:04:32.366Z,70.50
2022-10-26T03:06:07.493Z,70.40
2022-10-26T03:07:39.688Z,70.60
2022-10-26T03:09:12.884Z,70.60
2022-10-26T03:10:47.404Z,70.60
2022-10-26T03:12:20.981Z,71.10
2022-10-26T03:13:54.130Z,70.80
2022-10-26T03:15:27.765Z,70.80
2022-10-26T03:17:00.915Z,70.90
2022-10-26T03:18:34.097Z,70.90
2022-10-26T03:20:09.748Z,70.90
2022-10-26T03:21:44.262Z,71.00
2022-10-26T03:23:17.745Z,71.00
2022-10-26T03:24:50.949Z,71.10
2022-10-26T03:26:24.247Z,71.10
2022-10-26T03:27:59.134Z,71.10
2022-10-26T03:29:32.322Z,71.10
2022-10-26T03:31:06.017Z,71.20
2022-10-26T03:32:39.713Z,71.40
2022-10-26T03:34:13.894Z,71.40
2022-10-26T03:35:47.199Z,71.50
2022-10-26T03:37:21.889Z,71.50
2022-10-26T03:38:54.982Z,71.70
2022-10-26T03:40:28.414Z,71.70
2022-10-26T03:42:01.664Z,72.60
2022-10-26T03:43:34.930Z,71.80
2022-10-26T03:45:09.108Z,71.80
2022-10-26T03:46:42.362Z,72.00
2022-10-26T03:48:15.873Z,72.00
2022-10-26T03:49:49.163Z,72.00
2022-10-26T03:51:22.492Z,72.10
2022-10-26T03:52:57.390Z,72.00
2022-10-26T03:54:29.525Z,72.20
2022-10-26T03:56:02.694Z,72.00
2022-10-26T03:57:34.952Z,72.20
2022-10-26T03:59:08.094Z,72.30
2022-10-26T04:00:41.417Z,72.30
2022-10-26T04:02:15.372Z,72.20
2022-10-26T04:03:48.692Z,72.30
2022-10-26T04:05:23.922Z,72.60
2022-10-26T04:07:07.160Z,72.50
2022-10-26T04:08:41.817Z,72.50
2022-10-26T04:10:14.959Z,73.40
2022-10-26T04:11:48.350Z,72.60
2022-10-26T04:13:21.811Z,72.70
2022-10-26T04:15:07.794Z,72.60
2022-10-26T04:16:41.262Z,72.70
2022-10-26T04:18:14.689Z,72.70
2022-10-26T04:19:48.086Z,72.80
2022-10-26T04:21:21.202Z,72.70
2022-10-26T04:23:02.223Z,72.80
2022-10-26T04:24:35.717Z,72.90
2022-10-26T04:26:08.997Z,72.80
2022-10-26T04:27:41.498Z,72.80
2022-10-26T04:29:14.851Z,72.80
2022-10-26T04:30:49.864Z,72.80
2022-10-26T04:32:23.218Z,72.80
2022-10-26T04:33:56.564Z,72.80
2022-10-26T04:35:30.249Z,72.70
2022-10-26T04:37:03.317Z,72.70
2022-10-26T04:38:36.619Z,72.80
2022-10-26T04:40:12.212Z,72.80
2022-10-26T04:41:45.427Z,72.90
2022-10-26T04:43:18.605Z,72.80
2022-10-26T04:44:51.763Z,72.90
2022-10-26T04:46:24.946Z,72.80
2022-10-26T04:48:04.579Z,72.90
2022-10-26T04:49:37.762Z,73.70
2022-10-26T04:51:11.137Z,72.80
2022-10-26T04:52:44.302Z,72.90
2022-10-26T04:54:17.450Z,72.80
2022-10-26T04:55:57.999Z,72.70
2022-10-26T04:57:31.109Z,72.90
2022-10-26T04:59:04.684Z,72.80
2022-10-26T05:00:37.768Z,72.70
2022-10-26T05:02:11.114Z,72.70
2022-10-26T05:03:44.315Z,72.70
2022-10-26T05:05:17.690Z,72.60
2022-10-26T05:06:53.896Z,72.60
2022-10-26T05:08:29.912Z,72.60
2022-10-26T05:10:03.090Z,72.60
2022-10-26T05:11:37.678Z,72.50
2022-10-26T05:13:11.755Z,72.50
2022-10-26T05:14:45.204Z,72.40
2022-10-26T05:16:18.416Z,72.20
2022-10-26T05:17:57.368Z,72.30
2022-10-26T05:19:30.541Z,72.30
2022-10-26T05:21:06.454Z,72.20
2022-10-26T05:22:39.719Z,72.20
2022-10-26T05:24:13.169Z,72.10
2022-10-26T05:25:47.325Z,72.00
2022-10-26T05:27:21.742Z,72.00
2022-10-26T05:28:54.949Z,71.90
2022-10-26T05:30:29.556Z,71.80
2022-10-26T05:32:02.762Z,71.90
2022-10-26T05:33:36.144Z,71.80
2022-10-26T05:35:10.079Z,71.90
2022-10-26T05:36:43.274Z,71.80
2022-10-26T05:38:18.471Z,71.70
2022-10-26T05:39:51.633Z,71.90
2022-10-26T05:41:24.802Z,71.80
2022-10-26T05:43:02.936Z,71.80
2022-10-26T05:44:36.094Z,71.90
2022-10-26T05:46:09.328Z,71.80
2022-10-26T05:47:43.286Z,71.80
2022-10-26T05:49:16.694Z,71.90
2022-10-26T05:50:49.989Z,71.80
2022-10-26T05:52:23.286Z,71.80
2022-10-26T05:53:56.747Z,71.70
2022-10-26T05:55:31.305Z,71.90
2022-10-26T05:57:05.545Z,72.00
2022-10-26T05:58:41.257Z,72.00
2022-10-26T06:00:19.763Z,72.10
2022-10-26T06:02:07.736Z,72.20
2022-10-26T06:04:02.416Z,72.10
2022-10-26T06:05:45.037Z,72.10
2022-10-26T06:07:21.018Z,72.00
2022-10-26T06:08:54.921Z,72.00
2022-10-26T06:10:29.333Z,71.90
2022-10-26T06:12:03.745Z,71.90
2022-10-26T06:13:38.094Z,72.00
2022-10-26T06:15:17.169Z,72.10
2022-10-26T06:17:12.779Z,72.00
2022-10-26T06:19:13.914Z,72.30
2022-10-26T06:21:04.519Z,72.20
2022-10-26T06:22:59.283Z,72.20
2022-10-26T06:24:42.742Z,72.20
2022-10-26T06:26:35.468Z,72.10
2022-10-26T06:28:26.933Z,72.10
2022-10-26T06:30:06.972Z,72.20
2022-10-26T06:31:49.652Z,72.20
2022-10-26T06:33:30.741Z,72.20
2022-10-26T06:35:22.586Z,72.20
2022-10-26T06:36:59.317Z,72.50
2022-10-26T06:38:36.186Z,72.50
2022-10-26T06:40:12.619Z,72.60
2022-10-26T06:41:47.041Z,72.60
2022-10-26T06:43:26.760Z,72.60
2022-10-26T06:45:00.833Z,72.70
2022-10-26T06:46:44.597Z,72.70
2022-10-26T06:48:26.546Z,72.70
2022-10-26T06:50:12.770Z,72.80
2022-10-26T06:51:56.638Z,72.70
2022-10-26T06:55:17.601Z,72.90
2022-10-26T06:56:53.460Z,72.80
2022-10-26T06:58:31.989Z,72.80
2022-10-26T07:00:20.619Z,72.90
2022-10-26T07:01:55.290Z,72.90
2022-10-26T07:03:28.512Z,72.90
2022-10-26T07:05:01.951Z,73.20
2022-10-26T07:06:36.919Z,72.80
2022-10-26T07:08:12.757Z,72.90
2022-10-26T07:09:46.076Z,73.00
2022-10-26T07:11:19.339Z,73.00
2022-10-26T07:12:52.581Z,73.10
2022-10-26T07:14:25.719Z,73.10
2022-10-26T07:15:58.969Z,73.20
2022-10-26T07:17:42.922Z,73.20
2022-10-26T07:19:16.201Z,73.50
2022-10-26T07:20:49.363Z,73.60
2022-10-26T07:22:25.277Z,73.60
2022-10-26T07:23:58.475Z,73.80
2022-10-26T07:25:32.079Z,73.80
2022-10-26T07:27:05.558Z,73.90
2022-10-26T07:28:38.688Z,74.00
2022-10-26T07:30:12.840Z,74.00
2022-10-26T07:31:46.215Z,74.20
2022-10-26T07:33:21.100Z,74.20
2022-10-26T07:34:54.357Z,74.40
2022-10-26T07:36:27.454Z,74.40
2022-10-26T07:38:00.946Z,74.60
2022-10-26T07:39:34.169Z,74.70
2022-10-26T07:41:07.729Z,74.80
2022-10-26T07:42:43.041Z,74.80
2022-10-26T07:44:19.209Z,74.90
2022-10-26T07:45:52.541Z,75.00
2022-10-26T07:47:25.757Z,75.20
2022-10-26T07:49:00.403Z,75.30
2022-10-26T07:50:33.556Z,75.40
2022-10-26T07:52:06.996Z,75.80
2022-10-26T07:53:40.238Z,75.40
2022-10-26T07:55:14.314Z,75.50
2022-10-26T07:56:50.339Z,75.60
2022-10-26T07:58:26.044Z,75.80
2022-10-26T07:59:59.352Z,75.80
2022-10-26T08:01:32.777Z,76.00
2022-10-26T08:03:06.192Z,76.00
2022-10-26T08:04:40.825Z,76.00
2022-10-26T08:06:15.089Z,76.80
2022-10-26T08:07:48.819Z,76.10
2022-10-26T08:09:22.421Z,76.20
2022-10-26T08:10:55.577Z,76.50
2022-10-26T08:12:28.926Z,76.50
2022-10-26T08:14:02.023Z,76.60
2022-10-26T08:15:35.190Z,76.80
2022-10-26T08:17:08.458Z,76.80
2022-10-26T08:18:41.901Z,76.90
2022-10-26T08:20:16.520Z,77.00
2022-10-26T08:21:49.840Z,77.20
2022-10-26T08:23:23.260Z,77.10
2022-10-26T08:24:56.443Z,77.10
2022-10-26T08:26:30.602Z,77.20
2022-10-26T08:28:04.980Z,77.20
2022-10-26T08:29:38.327Z,77.30
2022-10-26T08:31:11.636Z,77.30
2022-10-26T08:32:45.342Z,77.70
2022-10-26T08:34:18.585Z,77.90
2022-10-26T08:35:57.295Z,78.10
2022-10-26T08:37:30.502Z,78.30
2022-10-26T08:39:03.865Z,78.20
2022-10-26T08:40:40.947Z,78.00
2022-10-26T08:42:20.259Z,78.00
2022-10-26T08:43:59.979Z,77.50
2022-10-26T08:45:39.074Z,77.20
2022-10-26T08:47:19.369Z,76.60
2022-10-26T08:48:57.327Z,75.80
2022-10-26T08:50:40.483Z,75.50
2022-10-26T08:52:23.054Z,75.00
2022-10-26T08:54:02.775Z,74.80
2022-10-26T08:55:44.955Z,74.80
2022-10-26T08:57:26.259Z,74.70
2022-10-26T08:59:06.674Z,74.00
2022-10-26T09:00:41.671Z,73.60
2022-10-26T09:02:17.767Z,73.40
2022-10-26T09:03:51.115Z,73.10
2022-10-26T09:05:37.251Z,73.00
2022-10-26T09:07:26.778Z,73.10
2022-10-26T09:09:09.239Z,73.10
2022-10-26T09:10:54.749Z,72.50
2022-10-26T09:12:44.658Z,72.50
2022-10-26T09:14:24.138Z,72.70
2022-10-26T09:16:06.528Z,72.60
2022-10-26T09:17:55.648Z,72.10
2022-10-26T09:20:04.871Z,72.10
2022-10-26T09:21:50.013Z,71.90
2022-10-26T09:23:45.446Z,71.40
2022-10-26T09:25:21.250Z,70.90
2022-10-26T09:26:56.918Z,71.10
2022-10-26T09:28:37.124Z,71.00
2022-10-26T09:30:18.368Z,70.80
2022-10-26T09:31:52.013Z,70.30
2022-10-26T09:33:27.480Z,70.10
2022-10-26T09:35:05.262Z,70.00
2022-10-26T09:36:56.257Z,69.70
2022-10-26T09:38:33.077Z,69.20
2022-10-26T09:40:14.340Z,69.30
2022-10-26T09:41:54.685Z,69.30
2022-10-26T09:43:35.934Z,68.30
2022-10-26T09:45:21.205Z,67.80
2022-10-26T09:47:02.438Z,67.20
2022-10-26T09:48:42.341Z,67.50
2022-10-26T09:50:26.243Z,67.20
2022-10-26T09:52:00.934Z,66.90
2022-10-26T09:53:34.511Z,67.20
2022-10-26T09:55:11.877Z,66.80
2022-10-26T09:56:48.696Z,66.10
2022-10-26T09:58:28.922Z,65.70
2022-10-26T10:00:02.478Z,65.00
2022-10-26T10:01:50.916Z,64.90
2022-10-26T10:03:28.550Z,64.30
2022-10-26T10:05:02.093Z,64.20
2022-10-26T10:06:35.246Z,64.30
2022-10-26T10:08:21.308Z,64.10
2022-10-26T10:10:10.141Z,63.70
2022-10-26T10:11:54.658Z,63.20
2022-10-26T10:13:31.486Z,63.50
2022-10-26T10:15:05.435Z,63.40
2022-10-26T10:16:39.142Z,63.50
2022-10-26T10:18:21.896Z,63.10
2022-10-26T10:19:55.225Z,62.70
2022-10-26T10:21:37.579Z,62.90
2022-10-26T10:23:29.812Z,62.50
2022-10-26T10:25:06.732Z,61.80
2022-10-26T10:26:59.945Z,62.60
2022-10-26T10:28:34.793Z,61.30
2022-10-26T10:30:23.583Z,62.00
2022-10-26T10:31:58.603Z,60.60
2022-10-26T10:33:40.288Z,61.40
2022-10-26T10:35:26.602Z,60.50
2022-10-26T10:37:01.252Z,60.10
2022-10-26T10:38:41.385Z,60.40
2022-10-26T10:40:22.081Z,60.60
2022-10-26T10:41:55.442Z,60.30
2022-10-26T10:43:28.961Z,60.70
2022-10-26T10:45:04.192Z,60.70
2022-10-26T10:46:38.691Z,60.10
2022-10-26T10:48:18.991Z,59.90
2022-10-26T10:49:57.082Z,59.40
2022-10-26T10:51:39.051Z,59.40
2022-10-26T10:53:19.375Z,59.80
2022-10-26T10:55:09.051Z,59.40
2022-10-26T10:56:49.871Z,59.20
2022-10-26T10:58:34.024Z,59.50
2022-10-26T11:00:11.060Z,59.20
2022-10-26T11:01:51.666Z,59.20
2022-10-26T11:04:00.185Z,58.90
2022-10-26T11:05:51.510Z,58.70
2022-10-26T11:07:28.841Z,58.30
2022-10-26T11:09:08.360Z,58.50
2022-10-26T11:10:48.446Z,58.30
2022-10-26T11:12:29.915Z,58.30
2022-10-26T11:14:11.699Z,57.90
2022-10-26T11:15:47.506Z,58.00
2022-10-26T11:17:26.364Z,57.90
2022-10-26T11:19:07.377Z,57.70
2022-10-26T11:20:50.617Z,57.70
2022-10-26T11:22:29.995Z,57.40
2022-10-26T11:24:16.620Z,57.40
2022-10-26T11:25:59.005Z,57.10
2022-10-26T11:27:42.492Z,57.10
2022-10-26T11:29:27.360Z,56.70
2022-10-26T11:31:08.533Z,56.60
2022-10-26T11:32:48.211Z,56.60
2022-10-26T11:34:32.750Z,56.60
2022-10-26T11:36:16.049Z,56.60
2022-10-26T11:38:02.769Z,56.60
2022-10-26T11:39:45.791Z,56.60
2022-10-26T11:41:26.236Z,56.40
2022-10-26T11:43:07.696Z,56.50
2022-10-26T11:44:52.751Z,56.50
2022-10-26T11:46:34.927Z,56.80
2022-10-26T11:48:17.712Z,56.60
2022-10-26T11:50:01.721Z,56.60
2022-10-26T11:51:44.150Z,56.50
2022-10-26T11:53:22.192Z,56.40
2022-10-26T11:55:00.521Z,56.60
2022-10-26T11:56:41.367Z,56.40
2022-10-26T11:58:15.092Z,56.20
2022-10-26T11:59:53.001Z,56.50
2022-10-26T12:01:29.739Z,56.10
2022-10-26T12:03:10.422Z,56.20
2022-10-26T12:04:47.104Z,55.90
2022-10-26T12:06:25.885Z,56.00
2022-10-26T12:08:07.394Z,56.10
2022-10-26T12:09:45.107Z,55.90
2022-10-26T12:11:35.978Z,56.00
2022-10-26T12:13:23.482Z,56.00
2022-10-26T12:15:11.910Z,56.10
2022-10-26T12:16:58.274Z,56.10
2022-10-26T12:18:54.567Z,56.10
2022-10-26T12:20:56.538Z,56.10
2022-10-26T12:22:35.433Z,56.00
2022-10-26T12:24:30.607Z,56.10
2022-10-26T12:26:41.277Z,56.00
2022-10-26T12:28:42.847Z,56.00
2022-10-26T12:30:30.492Z,55.70
2022-10-26T12:32:04.662Z,55.90
2022-10-26T12:33:51.744Z,56.20
2022-10-26T12:35:46.263Z,55.90
2022-10-26T12:37:36.682Z,56.00
2022-10-26T12:39:32.676Z,55.80
2022-10-26T12:41:19.587Z,55.70
2022-10-26T12:42:52.817Z,56.10
2022-10-26T12:44:37.772Z,56.30
2022-10-26T12:46:41.172Z,55.90
2022-10-26T12:48:38.939Z,55.70
2022-10-26T12:50:25.930Z,56.10
2022-10-26T12:51:58.060Z,56.30
2022-10-26T12:53:31.461Z,56.50
2022-10-26T12:55:57.721Z,56.70
2022-10-26T12:57:38.595Z,56.40
2022-10-26T12:59:28.916Z,56.50
2022-10-26T13:03:35.914Z,56.10
2022-10-26T13:05:50.935Z,56.30
2022-10-26T13:07:26.244Z,56.40
2022-10-26T13:09:03.024Z,56.60
2022-10-26T13:10:44.255Z,56.70
2022-10-26T13:12:17.630Z,56.70
2022-10-26T13:13:56.420Z,56.60
2022-10-26T13:15:34.369Z,56.40
2022-10-26T13:17:24.460Z,56.60
2022-10-26T13:18:58.985Z,56.60
2022-10-26T13:20:34.850Z,56.60
2022-10-26T13:22:15.745Z,56.40
2022-10-26T13:24:01.417Z,56.60
2022-10-26T13:25:34.677Z,56.60
2022-10-26T13:27:57.817Z,56.60
2022-10-26T13:29:31.989Z,56.50
2022-10-26T13:31:05.992Z,56.80
2022-10-26T13:32:43.967Z,56.80
2022-10-26T13:34:21.153Z,56.60
2022-10-26T13:35:59.520Z,56.70
2022-10-26T13:37:35.634Z,56.80
2022-10-26T13:39:18.246Z,56.80
2022-10-26T13:40:59.956Z,56.60
2022-10-26T13:42:45.693Z,56.60
2022-10-26T13:44:28.530Z,57.00
2022-10-26T13:46:04.723Z,57.10
2022-10-26T13:47:46.581Z,57.10
2022-10-26T13:49:28.679Z,57.00
2022-10-26T13:51:07.305Z,56.80
2022-10-26T13:52:45.569Z,56.60
2022-10-26T13:54:27.043Z,56.60
2022-10-26T13:56:07.574Z,56.60
2022-10-26T13:57:46.099Z,56.70
2022-10-26T14:01:15.585Z,56.60
2022-10-26T14:02:49.711Z,56.80
2022-10-26T14:04:28.942Z,56.90
2022-10-26T14:06:05.812Z,56.60
2022-10-26T14:07:45.826Z,56.90
2022-10-26T14:09:21.463Z,57.10
2022-10-26T14:10:59.039Z,57.10
2022-10-26T14:12:33.786Z,57.20
2022-10-26T14:14:15.881Z,57.30
2022-10-26T14:15:49.287Z,57.10
2022-10-26T14:17:26.825Z,57.10
2022-10-26T14:19:00.464Z,57.00
2022-10-26T14:20:34.022Z,56.80
2022-10-26T14:22:08.041Z,56.90
2022-10-26T14:23:49.853Z,56.60
2022-10-26T14:25:36.167Z,56.70
2022-10-26T14:27:17.403Z,56.90
2022-10-26T14:28:54.452Z,56.90
2022-10-26T14:30:32.868Z,56.90
2022-10-26T14:32:22.574Z,57.00
2022-10-26T14:33:58.618Z,56.40
2022-10-26T14:35:36.521Z,57.00
2022-10-26T14:37:35.255Z,56.80
2022-10-26T14:39:21.205Z,56.60
2022-10-26T14:40:58.498Z,57.00
2022-10-26T14:42:35.578Z,57.30
2022-10-26T14:44:20.326Z,57.30
2022-10-26T14:45:57.239Z,57.40
2022-10-26T14:47:34.009Z,57.60
2022-10-26T14:49:07.100Z,57.90
2022-10-26T14:50:42.963Z,58.00
2022-10-26T14:52:27.610Z,58.00
2022-10-26T14:54:05.778Z,58.20
2022-10-26T14:55:50.042Z,58.30
2022-10-26T14:57:37.512Z,58.00
2022-10-26T14:59:25.745Z,58.30
2022-10-26T15:01:36.234Z,58.30
2022-10-26T15:03:17.790Z,58.10
2022-10-26T15:05:01.347Z,58.40
2022-10-26T15:06:44.414Z,58.60
2022-10-26T15:08:56.081Z,58.60
2022-10-26T15:10:48.747Z,58.90
2022-10-26T15:12:26.967Z,58.90
2022-10-26T15:14:02.261Z,58.90
2022-10-26T15:15:38.976Z,58.70
2022-10-26T15:17:24.285Z,58.70
2022-10-26T15:19:07.255Z,58.90
2022-10-26T15:20:51.180Z,58.90
2022-10-26T15:22:32.075Z,59.00
2022-10-26T15:24:28.139Z,59.00
2022-10-26T15:26:04.042Z,59.10
2022-10-26T15:27:37.468Z,59.00
2022-10-26T15:29:39.826Z,59.00
2022-10-26T15:31:32.883Z,59.20
2022-10-26T15:33:22.296Z,59.20
2022-10-26T15:35:29.304Z,59.10
2022-10-26T15:37:09.698Z,59.20
2022-10-26T15:38:43.728Z,59.00
2022-10-26T15:40:18.490Z,59.10
2022-10-26T15:41:53.446Z,59.30
2022-10-26T15:43:26.633Z,59.30
2022-10-26T15:45:00.780Z,59.20
2022-10-26T15:46:36.555Z,59.30
2022-10-26T15:48:25.504Z,59.30
2022-10-26T15:49:58.856Z,59.40
2022-10-26T15:51:32.596Z,59.30
2022-10-26T15:53:17.465Z,59.30
2022-10-26T15:54:50.663Z,59.50
2022-10-26T15:56:26.432Z,59.40
2022-10-26T15:57:59.706Z,59.50
2022-10-26T15:59:33.179Z,59.50
2022-10-26T16:01:06.905Z,59.40
2022-10-26T16:02:43.698Z,59.50
2022-10-26T16:04:18.298Z,59.70
2022-10-26T16:05:58.223Z,59.60
2022-10-26T16:07:31.518Z,59.60
2022-10-26T16:09:08.310Z,59.60
2022-10-26T16:10:41.514Z,59.80
2022-10-26T16:12:15.247Z,59.70
2022-10-26T16:15:25.511Z,59.70
2022-10-26T16:16:58.669Z,59.80
2022-10-26T16:18:31.828Z,59.80
2022-10-26T16:20:09.223Z,59.90
2022-10-26T16:21:42.715Z,59.80
2022-10-26T16:23:17.581Z,59.90
2022-10-26T16:24:50.936Z,59.90
2022-10-26T16:26:24.830Z,59.90
2022-10-26T16:27:58.111Z,60.00
2022-10-26T16:29:31.907Z,60.00
2022-10-26T16:31:07.911Z,59.90
2022-10-26T16:32:41.824Z,60.10
2022-10-26T16:34:15.463Z,59.90
2022-10-26T16:35:57.909Z,60.00
2022-10-26T16:37:32.013Z,60.10
2022-10-26T16:39:05.535Z,60.00
2022-10-26T16:40:38.750Z,59.90
2022-10-26T16:42:12.027Z,60.00
2022-10-26T16:43:46.821Z,59.90
2022-10-26T16:45:21.003Z,59.90
2022-10-26T16:46:54.277Z,59.90
2022-10-26T16:48:27.783Z,60.00
2022-10-26T16:50:00.937Z,59.90
2022-10-26T16:51:35.662Z,59.80
2022-10-26T16:53:08.684Z,59.90
2022-10-26T16:54:42.001Z,60.20
2022-10-26T16:56:18.246Z,59.70
2022-10-26T16:57:51.803Z,59.70
2022-10-26T16:59:25.096Z,60.00
2022-10-26T17:00:58.603Z,59.70
2022-10-26T17:02:32.188Z,59.70
2022-10-26T17:04:06.287Z,59.90
2022-10-26T17:05:39.678Z,59.80
2022-10-26T17:07:14.335Z,59.90
2022-10-26T17:08:48.318Z,59.70
2022-10-26T17:10:21.686Z,59.80
2022-10-26T17:11:58.287Z,59.70
2022-10-26T17:13:35.534Z,59.60
2022-10-26T17:15:10.012Z,59.70
2022-10-26T17:16:43.385Z,59.60
2022-10-26T17:18:17.434Z,59.70
2022-10-26T17:19:50.755Z,59.80
2022-10-26T17:21:31.653Z,59.80
2022-10-26T17:23:07.032Z,59.90
2022-10-26T17:24:40.243Z,59.80
2022-10-26T17:26:15.653Z,59.80
2022-10-26T17:27:48.978Z,59.90
2022-10-26T17:29:22.178Z,59.90
2022-10-26T17:31:04.311Z,59.90
2022-10-26T17:32:37.603Z,60.10
2022-10-26T17:34:10.836Z,59.90
2022-10-26T17:35:44.077Z,59.80
2022-10-26T17:37:16.285Z,59.90
2022-10-26T17:38:53.434Z,59.90
2022-10-26T17:40:26.873Z,60.70
2022-10-26T17:42:00.086Z,60.00
2022-10-26T17:43:35.653Z,59.90
2022-10-26T17:45:10.706Z,60.10
2022-10-26T17:46:43.970Z,60.00
2022-10-26T17:48:17.137Z,60.10
2022-10-26T17:49:51.153Z,60.10
2022-10-26T17:51:25.962Z,60.10
2022-10-26T17:52:59.315Z,60.20
2022-10-26T17:54:33.859Z,60.30
2022-10-26T17:56:09.919Z,60.30
2022-10-26T17:57:43.116Z,60.30
2022-10-26T17:59:17.478Z,60.20
2022-10-26T18:00:50.744Z,60.30
2022-10-26T18:02:24.008Z,60.50
2022-10-26T18:03:57.432Z,60.40
2022-10-26T18:05:32.165Z,60.40
2022-10-26T18:07:05.484Z,60.50
2022-10-26T18:08:40.685Z,60.50
2022-10-26T18:12:10.645Z,60.80
2022-10-26T18:13:43.849Z,60.80
2022-10-26T18:15:17.544Z,60.70
2022-10-26T18:16:50.870Z,60.90
2022-10-26T18:18:24.084Z,60.90
2022-10-26T18:21:37.360Z,61.00
2022-10-26T18:23:11.900Z,61.10
2022-10-26T18:24:45.183Z,61.10
2022-10-26T18:26:22.784Z,61.10
2022-10-26T18:27:56.547Z,61.30
2022-10-26T18:29:29.940Z,61.20
2022-10-26T18:31:06.884Z,61.30
2022-10-26T18:32:40.594Z,61.40
2022-10-26T18:34:14.533Z,61.50
2022-10-26T18:35:47.900Z,61.80
2022-10-26T18:37:21.461Z,61.90
2022-10-26T18:38:55.070Z,62.10
2022-10-26T18:40:28.302Z,62.30
2022-10-26T18:42:03.026Z,62.30
2022-10-26T18:43:40.666Z,62.20
2022-10-26T18:45:13.995Z,62.60
2022-10-26T18:46:51.793Z,62.20
2022-10-26T18:48:25.084Z,62.20
2022-10-26T18:50:01.404Z,62.20
2022-10-26T18:51:35.964Z,62.40
2022-10-26T18:53:12.658Z,62.20
2022-10-26T18:54:48.506Z,62.40
2022-10-26T18:56:24.034Z,61.90
2022-10-26T18:57:59.442Z,62.00
2022-10-26T18:59:32.713Z,62.10
2022-10-26T19:01:10.134Z,62.10
2022-10-26T19:02:53.821Z,62.10
2022-10-26T19:04:27.998Z,62.00
2022-10-26T19:06:09.930Z,62.10
2022-10-26T19:07:45.314Z,62.30
2022-10-26T19:09:19.910Z,62.10
2022-10-26T19:10:53.038Z,62.10
2022-10-26T19:12:26.204Z,62.20
2022-10-26T19:14:01.908Z,62.10
2022-10-26T19:15:35.161Z,62.30
2022-10-26T19:17:08.883Z,62.60
2022-10-26T19:18:42.802Z,62.20
2022-10-26T19:20:16.912Z,62.20
2022-10-26T19:21:51.273Z,62.30
2022-10-26T19:23:25.556Z,62.50
2022-10-26T19:24:58.769Z,62.50
2022-10-26T19:26:36.757Z,62.40
2022-10-26T19:28:10.985Z,62.50
2022-10-26T19:29:45.635Z,62.60
2022-10-26T19:31:20.025Z,62.70
2022-10-26T19:32:55.801Z,62.50
2022-10-26T19:34:29.063Z,62.60
2022-10-26T19:36:04.907Z,62.60
2022-10-26T19:37:38.926Z,62.60
2022-10-26T19:39:12.484Z,62.70
2022-10-26T19:40:46.888Z,62.80
2022-10-26T19:42:20.902Z,62.90
2022-10-26T19:43:55.504Z,62.90
2022-10-26T19:45:30.265Z,62.90
2022-10-26T19:47:04.961Z,63.00
2022-10-26T19:48:38.762Z,63.20
2022-10-26T19:50:12.585Z,62.90
2022-10-26T19:51:47.768Z,62.80
2022-10-26T19:53:22.276Z,62.90
2022-10-26T19:54:55.580Z,63.00
2022-10-26T19:56:29.037Z,62.90
2022-10-26T19:58:03.528Z,62.70
2022-10-26T19:59:36.843Z,63.00
2022-10-26T20:01:14.780Z,63.00
2022-10-26T20:02:49.504Z,63.20
2022-10-26T20:04:23.460Z,63.00
2022-10-26T20:06:12.744Z,63.00
2022-10-26T20:07:46.044Z,63.10
2022-10-26T20:09:19.273Z,63.10
2022-10-26T20:10:57.265Z,63.00
2022-10-26T20:12:30.571Z,63.10
2022-10-26T20:14:06.262Z,63.10
2022-10-26T20:15:39.711Z,63.10
2022-10-26T20:17:15.431Z,63.20
2022-10-26T20:18:49.216Z,63.20
2022-10-26T20:20:34.929Z,63.20
2022-10-26T20:22:08.261Z,63.10
2022-10-26T20:23:42.856Z,63.00
2022-10-26T20:25:16.213Z,63.00
2022-10-26T20:26:49.422Z,63.00
2022-10-26T20:28:22.655Z,63.00
2022-10-26T20:29:56.648Z,63.00
2022-10-26T20:31:30.350Z,63.00
2022-10-26T20:33:05.725Z,63.10
2022-10-26T20:34:41.359Z,63.10
2022-10-26T20:36:17.533Z,63.20
2022-10-26T20:37:51.838Z,63.10
2022-10-26T20:39:26.119Z,63.00
2022-10-26T20:41:02.656Z,63.20
2022-10-26T20:42:39.331Z,63.50
2022-10-26T20:44:21.596Z,63.50
2022-10-26T20:45:57.684Z,63.40
2022-10-26T20:47:31.684Z,63.40
2022-10-26T20:49:07.480Z,63.40
2022-10-26T20:50:46.619Z,63.40
2022-10-26T20:52:26.788Z,63.30
2022-10-26T20:54:12.763Z,63.50
2022-10-26T20:55:54.610Z,63.70
2022-10-26T20:57:36.122Z,63.90
2022-10-26T20:59:21.427Z,63.80
2022-10-26T21:01:02.042Z,63.90
2022-10-26T21:02:35.482Z,63.90
2022-10-26T21:04:10.358Z,63.80
2022-10-26T21:05:48.129Z,63.90
2022-10-26T21:07:22.564Z,63.80
2022-10-26T21:08:57.593Z,63.70
2022-10-26T21:10:33.298Z,63.80
2022-10-26T21:12:08.045Z,63.80
2022-10-26T21:13:43.834Z,63.80
2022-10-26T21:15:18.047Z,64.10
2022-10-26T21:16:51.703Z,63.60